sensor_id;sensor_type;location;lat;lon;timestamp;pressure;altitude;pressure_sealevel;temperature;humidity
20009;BME280;10165;42.662;23.260;2023-03-23T00:01:06;94068.06;;;10.44;64.10
20009;BME280;10165;42.662;23.260;2023-03-23T00:03:32;94075.47;;;10.51;63.85
20009;BME280;10165;42.662;23.260;2023-03-23T00:05:58;94066.78;;;10.38;64.20
20009;BME280;10165;42.662;23.260;2023-03-23T00:08:36;94066.25;;;10.48;63.54
20009;BME280;10165;42.662;23.260;2023-03-23T00:11:20;94056.09;;;10.38;63.86
20009;BME280;10165;42.662;23.260;2023-03-23T00:13:48;94059.38;;;10.47;63.28
20009;BME280;10165;42.662;23.260;2023-03-23T00:16:18;94066.34;;;10.52;63.08
20009;BME280;10165;42.662;23.260;2023-03-23T00:18:48;94070.16;;;10.07;63.32
20009;BME280;10165;42.662;23.260;2023-03-23T00:21:30;94064.38;;;10.05;63.89
20009;BME280;10165;42.662;23.260;2023-03-23T00:24:09;94064.53;;;10.40;63.22
20009;BME280;10165;42.662;23.260;2023-03-23T00:26:37;94071.69;;;10.52;62.97
20009;BME280;10165;42.662;23.260;2023-03-23T00:29:18;94069.19;;;10.59;62.45
20009;BME280;10165;42.662;23.260;2023-03-23T00:31:45;94074.59;;;10.47;62.30
20009;BME280;10165;42.662;23.260;2023-03-23T00:34:20;94077.25;;;10.16;63.06
20009;BME280;10165;42.662;23.260;2023-03-23T00:36:49;94076.13;;;10.17;63.13
20009;BME280;10165;42.662;23.260;2023-03-23T00:39:15;94079.56;;;9.89;63.47
20009;BME280;10165;42.662;23.260;2023-03-23T00:41:42;94088.63;;;10.00;63.51
20009;BME280;10165;42.662;23.260;2023-03-23T00:44:08;94085.03;;;9.53;65.19
20009;BME280;10165;42.662;23.260;2023-03-23T00:46:34;94088.19;;;9.31;65.23
20009;BME280;10165;42.662;23.260;2023-03-23T00:49:12;94093.34;;;9.51;65.68
20009;BME280;10165;42.662;23.260;2023-03-23T00:51:38;94085.53;;;9.98;64.37
20009;BME280;10165;42.662;23.260;2023-03-23T00:54:04;94088.63;;;10.00;63.72
20009;BME280;10165;42.662;23.260;2023-03-23T00:56:29;94092.22;;;9.65;65.10
20009;BME280;10165;42.662;23.260;2023-03-23T00:58:55;94088.53;;;9.97;64.51
20009;BME280;10165;42.662;23.260;2023-03-23T01:01:20;94090.44;;;9.96;64.59
20009;BME280;10165;42.662;23.260;2023-03-23T01:03:46;94094.25;;;10.11;64.68
20009;BME280;10165;42.662;23.260;2023-03-23T01:06:12;94092.53;;;10.31;64.19
20009;BME280;10165;42.662;23.260;2023-03-23T01:08:41;94096.25;;;10.42;63.65
20009;BME280;10165;42.662;23.260;2023-03-23T01:11:13;94096.31;;;10.30;63.88
20009;BME280;10165;42.662;23.260;2023-03-23T01:13:43;94094.72;;;10.01;65.10
20009;BME280;10165;42.662;23.260;2023-03-23T01:16:09;94103.41;;;9.98;65.06
20009;BME280;10165;42.662;23.260;2023-03-23T01:18:36;94098.84;;;9.71;65.48
20009;BME280;10165;42.662;23.260;2023-03-23T01:21:07;94092.56;;;9.51;65.96
20009;BME280;10165;42.662;23.260;2023-03-23T01:23:35;94096.69;;;9.88;65.20
20009;BME280;10165;42.662;23.260;2023-03-23T01:26:09;94096.19;;;9.98;64.61
20009;BME280;10165;42.662;23.260;2023-03-23T01:28:39;94093.63;;;10.02;64.21
20009;BME280;10165;42.662;23.260;2023-03-23T01:31:10;94089.31;;;9.97;63.87
20009;BME280;10165;42.662;23.260;2023-03-23T01:33:37;94091.44;;;10.20;63.45
20009;BME280;10165;42.662;23.260;2023-03-23T01:36:10;94092.75;;;10.26;63.04
20009;BME280;10165;42.662;23.260;2023-03-23T01:38:36;94094.22;;;10.23;63.39
20009;BME280;10165;42.662;23.260;2023-03-23T01:41:03;94095.63;;;10.33;62.71
20009;BME280;10165;42.662;23.260;2023-03-23T01:43:29;94085.63;;;10.30;62.98
20009;BME280;10165;42.662;23.260;2023-03-23T01:45:55;94085.19;;;10.28;63.20
20009;BME280;10165;42.662;23.260;2023-03-23T01:48:24;94085.88;;;10.25;63.11
20009;BME280;10165;42.662;23.260;2023-03-23T01:51:04;94085.78;;;10.21;62.71
20009;BME280;10165;42.662;23.260;2023-03-23T01:53:42;94083.63;;;9.99;63.27
20009;BME280;10165;42.662;23.260;2023-03-23T01:56:09;94078.41;;;10.02;63.45
20009;BME280;10165;42.662;23.260;2023-03-23T01:58:37;94079.00;;;9.96;63.76
20009;BME280;10165;42.662;23.260;2023-03-23T02:01:06;94073.03;;;10.15;63.36
20009;BME280;10165;42.662;23.260;2023-03-23T02:03:35;94069.06;;;10.24;62.81
20009;BME280;10165;42.662;23.260;2023-03-23T02:06:01;94069.44;;;10.23;62.91
20009;BME280;10165;42.662;23.260;2023-03-23T02:08:28;94073.22;;;10.22;62.90
20009;BME280;10165;42.662;23.260;2023-03-23T02:10:58;94069.34;;;10.19;63.18
20009;BME280;10165;42.662;23.260;2023-03-23T02:13:24;94073.91;;;10.19;63.20
20009;BME280;10165;42.662;23.260;2023-03-23T02:16:07;94072.59;;;10.00;63.36
20009;BME280;10165;42.662;23.260;2023-03-23T02:35:49;94070.81;;;10.04;65.69
20009;BME280;10165;42.662;23.260;2023-03-23T02:38:44;94069.50;;;9.98;65.56
20009;BME280;10165;42.662;23.260;2023-03-23T02:41:19;94069.44;;;10.23;65.24
20009;BME280;10165;42.662;23.260;2023-03-23T02:43:47;94070.03;;;10.32;64.97
20009;BME280;10165;42.662;23.260;2023-03-23T02:46:15;94073.16;;;10.34;64.86
20009;BME280;10165;42.662;23.260;2023-03-23T02:48:43;94069.78;;;10.37;64.78
20009;BME280;10165;42.662;23.260;2023-03-23T02:51:11;94073.56;;;10.36;64.67
20009;BME280;10165;42.662;23.260;2023-03-23T02:53:40;94072.53;;;10.25;64.03
20009;BME280;10165;42.662;23.260;2023-03-23T02:56:08;94077.06;;;10.24;64.56
20009;BME280;10165;42.662;23.260;2023-03-23T02:58:36;94083.28;;;10.28;64.52
20009;BME280;10165;42.662;23.260;2023-03-23T03:03:56;94084.31;;;10.24;64.26
20009;BME280;10165;42.662;23.260;2023-03-23T03:11:47;94090.22;;;9.62;65.94
20009;BME280;10165;42.662;23.260;2023-03-23T03:14:20;94101.06;;;9.17;67.55
20009;BME280;10165;42.662;23.260;2023-03-23T03:17:04;94111.13;;;9.47;66.64
20009;BME280;10165;42.662;23.260;2023-03-23T03:19:36;94108.94;;;9.25;67.09
20009;BME280;10165;42.662;23.260;2023-03-23T03:22:03;94111.41;;;9.70;65.81
20009;BME280;10165;42.662;23.260;2023-03-23T03:24:30;94112.94;;;9.83;65.06
20009;BME280;10165;42.662;23.260;2023-03-23T03:26:58;94118.03;;;9.88;64.71
20009;BME280;10165;42.662;23.260;2023-03-23T03:29:34;94118.66;;;9.97;63.85
20009;BME280;10165;42.662;23.260;2023-03-23T03:32:02;94119.97;;;10.03;63.90
20009;BME280;10165;42.662;23.260;2023-03-23T03:34:30;94121.03;;;9.87;64.19
20009;BME280;10165;42.662;23.260;2023-03-23T03:36:58;94124.50;;;9.75;64.42
20009;BME280;10165;42.662;23.260;2023-03-23T03:39:25;94116.91;;;9.89;64.44
20009;BME280;10165;42.662;23.260;2023-03-23T03:41:51;94119.38;;;9.82;64.39
20009;BME280;10165;42.662;23.260;2023-03-23T03:44:17;94132.72;;;9.82;64.08
20009;BME280;10165;42.662;23.260;2023-03-23T03:46:42;94122.50;;;9.84;63.99
20009;BME280;10165;42.662;23.260;2023-03-23T03:49:09;94121.41;;;9.73;64.46
20009;BME280;10165;42.662;23.260;2023-03-23T03:51:38;94133.06;;;9.81;64.05
20009;BME280;10165;42.662;23.260;2023-03-23T03:54:04;94122.84;;;9.31;65.02
20009;BME280;10165;42.662;23.260;2023-03-23T03:56:30;94127.06;;;9.20;65.66
20009;BME280;10165;42.662;23.260;2023-03-23T03:58:58;94123.72;;;8.86;67.04
20009;BME280;10165;42.662;23.260;2023-03-23T04:01:24;94117.97;;;8.84;67.79
20009;BME280;10165;42.662;23.260;2023-03-23T04:03:50;94118.63;;;8.93;67.62
20009;BME280;10165;42.662;23.260;2023-03-23T04:06:17;94123.72;;;8.86;68.35
20009;BME280;10165;42.662;23.260;2023-03-23T04:08:43;94125.72;;;9.01;67.30
20009;BME280;10165;42.662;23.260;2023-03-23T04:11:11;94113.28;;;9.30;66.11
20009;BME280;10165;42.662;23.260;2023-03-23T04:13:37;94116.53;;;9.11;66.59
20009;BME280;10165;42.662;23.260;2023-03-23T04:16:04;94116.34;;;9.44;65.41
20009;BME280;10165;42.662;23.260;2023-03-23T04:18:29;94112.13;;;9.43;65.33
20009;BME280;10165;42.662;23.260;2023-03-23T04:20:58;94116.66;;;9.54;64.88
20009;BME280;10165;42.662;23.260;2023-03-23T04:23:25;94109.34;;;9.51;64.47
20009;BME280;10165;42.662;23.260;2023-03-23T04:25:52;94118.69;;;9.57;63.87
20009;BME280;10165;42.662;23.260;2023-03-23T04:28:22;94121.72;;;9.32;65.11
20009;BME280;10165;42.662;23.260;2023-03-23T04:30:50;94113.50;;;9.37;65.00
20009;BME280;10165;42.662;23.260;2023-03-23T04:33:24;94113.81;;;9.35;65.05
20009;BME280;10165;42.662;23.260;2023-03-23T04:35:54;94115.50;;;9.28;65.28
20009;BME280;10165;42.662;23.260;2023-03-23T04:38:21;94111.41;;;9.30;65.56
20009;BME280;10165;42.662;23.260;2023-03-23T04:40:49;94113.94;;;9.39;64.99
20009;BME280;10165;42.662;23.260;2023-03-23T04:43:18;94111.50;;;9.22;65.79
20009;BME280;10165;42.662;23.260;2023-03-23T04:45:47;94121.72;;;8.71;66.91
20009;BME280;10165;42.662;23.260;2023-03-23T04:48:12;94132.13;;;8.52;67.22
20009;BME280;10165;42.662;23.260;2023-03-23T04:50:39;94124.38;;;8.59;66.93
20009;BME280;10165;42.662;23.260;2023-03-23T04:53:05;94124.69;;;8.25;67.07
20009;BME280;10165;42.662;23.260;2023-03-23T04:55:32;94127.53;;;8.07;68.34
20009;BME280;10165;42.662;23.260;2023-03-23T04:58:02;94135.81;;;8.27;68.69
20009;BME280;10165;42.662;23.260;2023-03-23T05:00:29;94128.94;;;8.26;68.91
20009;BME280;10165;42.662;23.260;2023-03-23T05:02:54;94134.50;;;8.66;67.84
20009;BME280;10165;42.662;23.260;2023-03-23T05:05:21;94138.50;;;8.84;67.43
20009;BME280;10165;42.662;23.260;2023-03-23T05:07:48;94142.59;;;8.81;67.17
20009;BME280;10165;42.662;23.260;2023-03-23T05:10:14;94144.50;;;8.93;67.24
20009;BME280;10165;42.662;23.260;2023-03-23T05:12:41;94145.03;;;8.98;67.19
20009;BME280;10165;42.662;23.260;2023-03-23T05:15:08;94149.72;;;9.26;66.33
20009;BME280;10165;42.662;23.260;2023-03-23T05:17:34;94139.47;;;9.40;65.85
20009;BME280;10165;42.662;23.260;2023-03-23T05:20:00;94147.47;;;9.28;66.60
20009;BME280;10165;42.662;23.260;2023-03-23T05:22:27;94146.88;;;9.58;65.59
20009;BME280;10165;42.662;23.260;2023-03-23T05:24:53;94144.22;;;9.58;65.67
20009;BME280;10165;42.662;23.260;2023-03-23T05:27:19;94147.22;;;9.69;65.40
20009;BME280;10165;42.662;23.260;2023-03-23T05:29:46;94156.34;;;9.56;65.77
20009;BME280;10165;42.662;23.260;2023-03-23T05:32:16;94158.31;;;9.59;65.85
20009;BME280;10165;42.662;23.260;2023-03-23T05:34:42;94157.00;;;9.53;66.36
20009;BME280;10165;42.662;23.260;2023-03-23T05:37:09;94159.22;;;9.63;66.41
20009;BME280;10165;42.662;23.260;2023-03-23T05:39:35;94162.44;;;9.69;65.83
20009;BME280;10165;42.662;23.260;2023-03-23T05:42:03;94160.28;;;9.74;66.20
20009;BME280;10165;42.662;23.260;2023-03-23T05:44:28;94172.13;;;9.49;67.41
20009;BME280;10165;42.662;23.260;2023-03-23T05:46:54;94174.59;;;9.30;67.37
20009;BME280;10165;42.662;23.260;2023-03-23T05:49:20;94174.66;;;8.97;68.43
20009;BME280;10165;42.662;23.260;2023-03-23T05:51:46;94176.88;;;8.83;69.03
20009;BME280;10165;42.662;23.260;2023-03-23T05:54:13;94179.81;;;9.14;68.51
20009;BME280;10165;42.662;23.260;2023-03-23T05:56:40;94181.91;;;9.33;68.06
20009;BME280;10165;42.662;23.260;2023-03-23T05:59:06;94183.88;;;9.48;67.84
20009;BME280;10165;42.662;23.260;2023-03-23T06:01:32;94184.25;;;9.34;68.27
20009;BME280;10165;42.662;23.260;2023-03-23T06:03:58;94178.56;;;9.60;67.80
20009;BME280;10165;42.662;23.260;2023-03-23T06:06:25;94182.50;;;9.78;67.61
20009;BME280;10165;42.662;23.260;2023-03-23T06:08:50;94180.50;;;9.87;67.32
20009;BME280;10165;42.662;23.260;2023-03-23T06:11:17;94186.81;;;9.95;67.58
20009;BME280;10165;42.662;23.260;2023-03-23T06:13:44;94187.22;;;10.09;67.24
20009;BME280;10165;42.662;23.260;2023-03-23T06:16:09;94182.88;;;10.04;67.77
20009;BME280;10165;42.662;23.260;2023-03-23T06:18:35;94181.09;;;10.08;68.04
20009;BME280;10165;42.662;23.260;2023-03-23T06:21:03;94179.09;;;10.18;68.64
20009;BME280;10165;42.662;23.260;2023-03-23T06:23:29;94174.88;;;10.17;69.14
20009;BME280;10165;42.662;23.260;2023-03-23T06:26:00;94178.09;;;10.10;69.04
20009;BME280;10165;42.662;23.260;2023-03-23T06:28:26;94178.13;;;9.98;69.98
20009;BME280;10165;42.662;23.260;2023-03-23T06:30:52;94181.66;;;10.14;70.24
20009;BME280;10165;42.662;23.260;2023-03-23T06:33:19;94177.44;;;10.41;69.24
20009;BME280;10165;42.662;23.260;2023-03-23T06:35:44;94176.38;;;10.30;68.68
20009;BME280;10165;42.662;23.260;2023-03-23T06:38:10;94177.69;;;10.36;69.19
20009;BME280;10165;42.662;23.260;2023-03-23T06:40:36;94175.59;;;10.57;68.54
20009;BME280;10165;42.662;23.260;2023-03-23T06:43:02;94182.97;;;10.48;68.16
20009;BME280;10165;42.662;23.260;2023-03-23T06:45:30;94191.00;;;10.48;68.93
20009;BME280;10165;42.662;23.260;2023-03-23T06:47:56;94189.66;;;10.70;68.59
20009;BME280;10165;42.662;23.260;2023-03-23T06:50:22;94189.19;;;10.12;69.07
20009;BME280;10165;42.662;23.260;2023-03-23T06:52:49;94190.16;;;9.92;69.99
20009;BME280;10165;42.662;23.260;2023-03-23T06:55:15;94192.69;;;10.00;70.34
20009;BME280;10165;42.662;23.260;2023-03-23T06:57:42;94200.22;;;9.58;71.72
20009;BME280;10165;42.662;23.260;2023-03-23T07:00:09;94203.72;;;9.99;71.46
20009;BME280;10165;42.662;23.260;2023-03-23T07:02:38;94198.91;;;10.04;70.12
20009;BME280;10165;42.662;23.260;2023-03-23T07:05:04;94195.66;;;10.11;69.91
20009;BME280;10165;42.662;23.260;2023-03-23T07:07:30;94197.94;;;10.37;69.51
20009;BME280;10165;42.662;23.260;2023-03-23T07:09:56;94203.03;;;10.02;70.90
20009;BME280;10165;42.662;23.260;2023-03-23T07:12:22;94202.31;;;10.57;69.08
20009;BME280;10165;42.662;23.260;2023-03-23T07:14:48;94197.75;;;10.30;68.72
20009;BME280;10165;42.662;23.260;2023-03-23T07:17:13;94204.44;;;9.72;71.43
20009;BME280;10165;42.662;23.260;2023-03-23T07:19:39;94212.34;;;9.07;73.08
20009;BME280;10165;42.662;23.260;2023-03-23T07:22:06;94199.69;;;10.17;70.52
20009;BME280;10165;42.662;23.260;2023-03-23T07:24:32;94200.19;;;10.78;68.54
20009;BME280;10165;42.662;23.260;2023-03-23T07:26:58;94200.75;;;10.99;67.12
20009;BME280;10165;42.662;23.260;2023-03-23T07:29:24;94212.78;;;10.10;70.02
20009;BME280;10165;42.662;23.260;2023-03-23T07:31:49;94210.22;;;10.14;69.36
20009;BME280;10165;42.662;23.260;2023-03-23T07:34:15;94203.91;;;10.89;68.08
20009;BME280;10165;42.662;23.260;2023-03-23T07:36:40;94211.22;;;10.09;68.94
20009;BME280;10165;42.662;23.260;2023-03-23T07:39:06;94210.63;;;10.83;68.62
20009;BME280;10165;42.662;23.260;2023-03-23T07:41:32;94215.22;;;11.30;66.82
20009;BME280;10165;42.662;23.260;2023-03-23T07:43:58;94215.63;;;11.63;65.29
20009;BME280;10165;42.662;23.260;2023-03-23T07:46:24;94218.31;;;11.63;64.58
20009;BME280;10165;42.662;23.260;2023-03-23T07:48:49;94218.16;;;11.40;65.82
20009;BME280;10165;42.662;23.260;2023-03-23T07:51:15;94221.19;;;11.08;66.51
20009;BME280;10165;42.662;23.260;2023-03-23T07:53:44;94214.00;;;11.27;66.90
20009;BME280;10165;42.662;23.260;2023-03-23T07:56:11;94220.72;;;11.84;65.94
20009;BME280;10165;42.662;23.260;2023-03-23T07:58:37;94216.53;;;12.02;63.89
20009;BME280;10165;42.662;23.260;2023-03-23T08:01:03;94224.78;;;11.62;64.48
20009;BME280;10165;42.662;23.260;2023-03-23T08:03:29;94223.81;;;11.70;65.48
20009;BME280;10165;42.662;23.260;2023-03-23T08:06:01;94221.28;;;11.93;64.56
20009;BME280;10165;42.662;23.260;2023-03-23T08:08:26;94226.00;;;11.49;65.28
20009;BME280;10165;42.662;23.260;2023-03-23T08:10:52;94225.47;;;11.43;66.29
20009;BME280;10165;42.662;23.260;2023-03-23T08:13:18;94228.38;;;11.85;63.95
20009;BME280;10165;42.662;23.260;2023-03-23T08:15:44;94226.06;;;11.68;63.14
20009;BME280;10165;42.662;23.260;2023-03-23T08:18:11;94226.16;;;11.87;62.94
20009;BME280;10165;42.662;23.260;2023-03-23T08:20:36;94226.00;;;11.49;64.25
20009;BME280;10165;42.662;23.260;2023-03-23T08:23:03;94227.03;;;11.76;64.31
20009;BME280;10165;42.662;23.260;2023-03-23T08:25:30;94223.94;;;12.28;62.09
20009;BME280;10165;42.662;23.260;2023-03-23T08:27:57;94219.97;;;12.03;62.02
20009;BME280;10165;42.662;23.260;2023-03-23T08:30:23;94225.91;;;12.50;60.57
20009;BME280;10165;42.662;23.260;2023-03-23T08:32:50;94220.19;;;12.90;60.02
20009;BME280;10165;42.662;23.260;2023-03-23T08:35:16;94221.31;;;13.31;58.12
20009;BME280;10165;42.662;23.260;2023-03-23T08:37:43;94223.63;;;13.10;57.98
20009;BME280;10165;42.662;23.260;2023-03-23T08:40:13;94216.06;;;13.38;57.27
20009;BME280;10165;42.662;23.260;2023-03-23T08:42:41;94207.31;;;13.41;56.29
20009;BME280;10165;42.662;23.260;2023-03-23T08:45:10;94226.91;;;12.61;54.17
20009;BME280;10165;42.662;23.260;2023-03-23T08:47:37;94219.56;;;13.42;52.85
20009;BME280;10165;42.662;23.260;2023-03-23T08:50:05;94227.69;;;13.23;55.23
20009;BME280;10165;42.662;23.260;2023-03-23T08:52:30;94218.06;;;12.99;56.25
20009;BME280;10165;42.662;23.260;2023-03-23T08:54:56;94218.97;;;13.52;53.45
20009;BME280;10165;42.662;23.260;2023-03-23T08:57:23;94214.69;;;13.48;51.28
20009;BME280;10165;42.662;23.260;2023-03-23T08:59:49;94217.44;;;12.86;52.86
20009;BME280;10165;42.662;23.260;2023-03-23T09:02:15;94223.09;;;12.62;51.62
20009;BME280;10165;42.662;23.260;2023-03-23T09:04:42;94220.66;;;12.95;52.42
20009;BME280;10165;42.662;23.260;2023-03-23T09:07:10;94220.38;;;13.01;51.37
20009;BME280;10165;42.662;23.260;2023-03-23T09:09:38;94212.91;;;13.81;51.60
20009;BME280;10165;42.662;23.260;2023-03-23T09:12:06;94224.47;;;13.85;50.03
20009;BME280;10165;42.662;23.260;2023-03-23T09:14:32;94218.78;;;13.91;50.49
20009;BME280;10165;42.662;23.260;2023-03-23T09:16:57;94222.81;;;13.77;50.58
20009;BME280;10165;42.662;23.260;2023-03-23T09:19:23;94217.03;;;13.75;50.64
20009;BME280;10165;42.662;23.260;2023-03-23T09:21:48;94222.53;;;12.91;51.03
20009;BME280;10165;42.662;23.260;2023-03-23T09:24:15;94213.50;;;13.45;50.00
20009;BME280;10165;42.662;23.260;2023-03-23T09:26:40;94219.44;;;12.70;51.68
20009;BME280;10165;42.662;23.260;2023-03-23T09:29:06;94220.09;;;12.44;50.91
20009;BME280;10165;42.662;23.260;2023-03-23T09:31:32;94212.31;;;12.39;52.08
20009;BME280;10165;42.662;23.260;2023-03-23T09:33:58;94208.53;;;13.02;51.38
20009;BME280;10165;42.662;23.260;2023-03-23T09:36:25;94196.56;;;13.41;50.82
20009;BME280;10165;42.662;23.260;2023-03-23T09:38:57;94210.09;;;13.03;51.47
20009;BME280;10165;42.662;23.260;2023-03-23T09:49:33;94192.44;;;13.47;50.24
20009;BME280;10165;42.662;23.260;2023-03-23T09:52:13;94197.81;;;13.73;50.31
20009;BME280;10165;42.662;23.260;2023-03-23T09:54:41;94197.16;;;13.31;50.00
20009;BME280;10165;42.662;23.260;2023-03-23T10:00:10;94196.59;;;13.67;48.64
20009;BME280;10165;42.662;23.260;2023-03-23T10:02:59;94192.94;;;14.09;48.29
20009;BME280;10165;42.662;23.260;2023-03-23T10:05:39;94191.69;;;13.73;47.92
20009;BME280;10165;42.662;23.260;2023-03-23T10:08:13;94194.41;;;13.76;49.96
20009;BME280;10165;42.662;23.260;2023-03-23T10:10:47;94189.63;;;13.63;50.18
20009;BME280;10165;42.662;23.260;2023-03-23T10:16:08;94180.69;;;13.55;48.39
20009;BME280;10165;42.662;23.260;2023-03-23T10:21:11;94184.66;;;13.65;48.93
20009;BME280;10165;42.662;23.260;2023-03-23T10:31:38;94179.25;;;14.80;46.77
20009;BME280;10165;42.662;23.260;2023-03-23T10:34:25;94175.19;;;14.01;47.63
20009;BME280;10165;42.662;23.260;2023-03-23T10:37:08;94181.22;;;13.91;46.95
20009;BME280;10165;42.662;23.260;2023-03-23T10:40:00;94182.97;;;13.79;47.53
20009;BME280;10165;42.662;23.260;2023-03-23T10:42:36;94180.16;;;13.99;47.17
20009;BME280;10165;42.662;23.260;2023-03-23T10:47:45;94173.94;;;14.21;46.95
20009;BME280;10165;42.662;23.260;2023-03-23T10:50:18;94169.31;;;14.51;46.21
20009;BME280;10165;42.662;23.260;2023-03-23T10:52:50;94169.88;;;15.04;45.07
20009;BME280;10165;42.662;23.260;2023-03-23T10:55:20;94167.09;;;14.94;44.72
20009;BME280;10165;42.662;23.260;2023-03-23T10:58:03;94164.16;;;14.72;45.41
20009;BME280;10165;42.662;23.260;2023-03-23T11:00:30;94170.41;;;14.80;45.86
20009;BME280;10165;42.662;23.260;2023-03-23T11:03:04;94157.22;;;14.68;44.65
20009;BME280;10165;42.662;23.260;2023-03-23T11:05:42;94166.53;;;14.41;45.49
20009;BME280;10165;42.662;23.260;2023-03-23T11:08:14;94167.34;;;14.18;45.95
20009;BME280;10165;42.662;23.260;2023-03-23T11:10:48;94157.47;;;14.56;46.30
20009;BME280;10165;42.662;23.260;2023-03-23T11:13:16;94164.00;;;14.25;46.87
20009;BME280;10165;42.662;23.260;2023-03-23T11:15:43;94161.91;;;13.55;47.89
20009;BME280;10165;42.662;23.260;2023-03-23T11:18:22;94158.25;;;13.97;47.28
20009;BME280;10165;42.662;23.260;2023-03-23T11:20:55;94154.09;;;14.62;45.88
20009;BME280;10165;42.662;23.260;2023-03-23T11:23:31;94147.75;;;14.81;44.50
20009;BME280;10165;42.662;23.260;2023-03-23T11:26:32;94142.97;;;15.04;43.54
20009;BME280;10165;42.662;23.260;2023-03-23T11:31:41;94134.91;;;14.64;44.94
20009;BME280;10165;42.662;23.260;2023-03-23T11:36:48;94128.19;;;14.47;44.03
20009;BME280;10165;42.662;23.260;2023-03-23T11:39:24;94124.13;;;14.30;45.13
20009;BME280;10165;42.662;23.260;2023-03-23T11:41:50;94133.72;;;14.61;43.98
20009;BME280;10165;42.662;23.260;2023-03-23T11:44:16;94124.13;;;15.48;42.91
20009;BME280;10165;42.662;23.260;2023-03-23T11:51:56;94113.81;;;15.10;43.81
20009;BME280;10165;42.662;23.260;2023-03-23T11:54:32;94106.03;;;14.57;45.24
20009;BME280;10165;42.662;23.260;2023-03-23T11:56:58;94110.72;;;15.55;45.47
20009;BME280;10165;42.662;23.260;2023-03-23T11:59:35;94119.69;;;14.78;44.26
20009;BME280;10165;42.662;23.260;2023-03-23T12:05:48;94109.88;;;14.56;44.62
20009;BME280;10165;42.662;23.260;2023-03-23T12:08:34;94111.06;;;15.03;43.36
20009;BME280;10165;42.662;23.260;2023-03-23T12:38:02;94091.41;;;14.99;42.43
20009;BME280;10165;42.662;23.260;2023-03-23T12:43:29;94089.97;;;15.08;43.37
20009;BME280;10165;42.662;23.260;2023-03-23T12:46:36;94089.47;;;15.43;42.85
20009;BME280;10165;42.662;23.260;2023-03-23T12:49:26;94086.13;;;15.64;42.77
20009;BME280;10165;42.662;23.260;2023-03-23T12:52:20;94087.66;;;15.07;43.68
20009;BME280;10165;42.662;23.260;2023-03-23T12:57:35;94087.88;;;16.04;41.33
20009;BME280;10165;42.662;23.260;2023-03-23T13:00:13;94085.75;;;15.62;42.19
20009;BME280;10165;42.662;23.260;2023-03-23T13:02:43;94083.66;;;16.06;41.11
20009;BME280;10165;42.662;23.260;2023-03-23T13:08:13;94085.75;;;15.58;42.02
20009;BME280;10165;42.662;23.260;2023-03-23T13:10:49;94081.03;;;15.48;42.49
20009;BME280;10165;42.662;23.260;2023-03-23T13:13:23;94073.91;;;15.73;41.66
20009;BME280;10165;42.662;23.260;2023-03-23T13:23:44;94059.81;;;16.05;40.58
20009;BME280;10165;42.662;23.260;2023-03-23T13:26:17;94058.09;;;15.68;41.02
20009;BME280;10165;42.662;23.260;2023-03-23T13:29:06;94055.59;;;16.21;39.62
20009;BME280;10165;42.662;23.260;2023-03-23T13:31:38;94059.28;;;15.71;41.57
20009;BME280;10165;42.662;23.260;2023-03-23T13:39:27;94059.03;;;16.01;39.60
20009;BME280;10165;42.662;23.260;2023-03-23T13:42:26;94057.50;;;16.17;40.25
20009;BME280;10165;42.662;23.260;2023-03-23T13:47:27;94055.97;;;16.09;39.59
20009;BME280;10165;42.662;23.260;2023-03-23T13:50:09;94058.19;;;15.83;40.54
20009;BME280;10165;42.662;23.260;2023-03-23T14:08:02;94046.72;;;16.14;41.54
20009;BME280;10165;42.662;23.260;2023-03-23T14:10:44;94028.41;;;16.69;41.49
20009;BME280;10165;42.662;23.260;2023-03-23T14:13:28;94030.69;;;17.02;39.65
20009;BME280;10165;42.662;23.260;2023-03-23T14:16:03;94031.47;;;17.10;38.65
20009;BME280;10165;42.662;23.260;2023-03-23T14:18:36;94025.53;;;16.02;40.82
20009;BME280;10165;42.662;23.260;2023-03-23T14:21:04;94026.03;;;16.39;40.90
20009;BME280;10165;42.662;23.260;2023-03-23T14:23:32;94031.41;;;16.43;40.31
20009;BME280;10165;42.662;23.260;2023-03-23T14:26:01;94026.84;;;16.61;39.07
20009;BME280;10165;42.662;23.260;2023-03-23T14:28:37;94026.03;;;16.50;39.63
20009;BME280;10165;42.662;23.260;2023-03-23T14:31:04;94028.38;;;16.58;39.65
20009;BME280;10165;42.662;23.260;2023-03-23T14:33:29;94022.59;;;16.56;40.41
20009;BME280;10165;42.662;23.260;2023-03-23T14:35:58;94025.28;;;16.56;41.09
20009;BME280;10165;42.662;23.260;2023-03-23T14:38:25;94021.84;;;16.95;40.28
20009;BME280;10165;42.662;23.260;2023-03-23T14:41:01;94020.66;;;17.28;39.64
20009;BME280;10165;42.662;23.260;2023-03-23T14:43:27;94025.31;;;17.02;39.41
20009;BME280;10165;42.662;23.260;2023-03-23T14:45:55;94025.09;;;15.86;40.81
20009;BME280;10165;42.662;23.260;2023-03-23T14:48:21;94036.00;;;16.24;40.49
20009;BME280;10165;42.662;23.260;2023-03-23T14:50:52;94033.97;;;15.90;41.46
20009;BME280;10165;42.662;23.260;2023-03-23T14:53:22;94029.06;;;16.20;41.13
20009;BME280;10165;42.662;23.260;2023-03-23T14:55:50;94027.06;;;16.06;42.13
20009;BME280;10165;42.662;23.260;2023-03-23T14:58:17;94015.69;;;16.69;40.47
20009;BME280;10165;42.662;23.260;2023-03-23T15:03:24;94014.47;;;16.49;40.91
20009;BME280;10165;42.662;23.260;2023-03-23T15:05:54;94013.72;;;17.02;40.23
20009;BME280;10165;42.662;23.260;2023-03-23T15:08:25;94022.06;;;15.98;41.38
20009;BME280;10165;42.662;23.260;2023-03-23T15:13:46;94013.59;;;16.10;41.44
20009;BME280;10165;42.662;23.260;2023-03-23T15:16:18;94004.13;;;16.65;40.38
20009;BME280;10165;42.662;23.260;2023-03-23T15:18:58;94009.72;;;15.17;43.51
20009;BME280;10165;42.662;23.260;2023-03-23T15:23:52;94006.72;;;16.16;41.53
20009;BME280;10165;42.662;23.260;2023-03-23T15:26:33;94012.31;;;15.65;42.08